createdAt,value
2022-08-18T00:01:08.791Z,14.77
2022-08-18T00:11:13.657Z,15.07
2022-08-18T00:21:16.819Z,16.15
2022-08-18T00:31:28.227Z,16.45
2022-08-18T00:41:34.690Z,14.82
2022-08-18T00:51:44.533Z,14.75
2022-08-18T01:01:50.424Z,14.10
2022-08-18T01:11:56.615Z,15.27
2022-08-18T01:22:06.136Z,16.92
2022-08-18T01:32:08.246Z,17.17
2022-08-18T01:42:10.860Z,17.55
2022-08-18T01:52:22.116Z,16.35
2022-08-18T02:02:27.454Z,17.83
2022-08-18T02:12:29.682Z,18.48
2022-08-18T02:22:32.510Z,18.15
2022-08-18T02:32:36.906Z,18.23
2022-08-18T02:42:39.420Z,18.15
2022-08-18T02:52:43.827Z,18.50
2022-08-18T03:02:51.718Z,20.15
2022-08-18T03:12:58.831Z,19.23
2022-08-18T03:23:05.759Z,19.55
2022-08-18T03:33:12.074Z,17.70
2022-08-18T03:43:23.937Z,19.55
2022-08-18T03:53:38.602Z,17.88
2022-08-18T04:03:40.633Z,16.52
2022-08-18T04:13:47.937Z,16.15
2022-08-18T04:23:50.114Z,16.35
2022-08-18T04:33:54.654Z,16.52
2022-08-18T04:44:06.106Z,18.60
2022-08-18T04:54:11.321Z,17.55
2022-08-18T05:04:17.257Z,16.33
2022-08-18T05:14:21.740Z,17.15
2022-08-18T05:24:32.209Z,16.00
2022-08-18T05:34:36.834Z,15.05
2022-08-18T05:44:43.660Z,14.98
2022-08-18T05:55:18.603Z,15.13
2022-08-18T06:05:37.283Z,15.75
2022-08-18T06:16:06.553Z,14.32
2022-08-18T06:26:43.383Z,14.93
2022-08-18T06:37:09.766Z,13.50
2022-08-18T06:47:26.413Z,12.93
2022-08-18T06:57:39.436Z,11.43
2022-08-18T07:07:44.953Z,9.40
2022-08-18T07:17:50.720Z,10.38
2022-08-18T07:27:58.298Z,8.82
2022-08-18T07:38:42.074Z,8.63
2022-08-18T07:48:42.350Z,7.88
2022-08-18T07:58:48.285Z,7.68
2022-08-18T08:09:03.356Z,7.65
2022-08-18T08:19:56.756Z,6.95
2022-08-18T08:30:05.565Z,9.25
2022-08-18T08:40:29.426Z,8.65
2022-08-18T08:50:36.940Z,9.05
2022-08-18T09:00:44.431Z,8.98
2022-08-18T09:10:59.593Z,9.57
2022-08-18T09:21:32.213Z,7.90
2022-08-18T09:31:36.844Z,8.23
2022-08-18T09:41:50.661Z,8.80
2022-08-18T09:52:25.863Z,8.18
2022-08-18T10:02:33.970Z,7.28
2022-08-18T10:13:11.541Z,7.40
2022-08-18T10:24:02.760Z,7.10
2022-08-18T10:34:40.054Z,6.72
2022-08-18T10:45:11.769Z,6.30
2022-08-18T10:55:18.466Z,6.30
2022-08-18T11:05:26.813Z,6.35
2022-08-18T11:16:15.750Z,5.80
2022-08-18T11:26:19.458Z,5.50
2022-08-18T11:36:33.209Z,5.78
2022-08-18T11:46:40.910Z,5.40
2022-08-18T11:56:45.205Z,5.57
2022-08-18T12:06:59.890Z,5.00
2022-08-18T12:17:04.110Z,4.88
2022-08-18T12:27:21.130Z,4.22
2022-08-18T12:37:58.412Z,5.57
2022-08-18T12:47:52.721Z,6.05
2022-08-18T12:57:54.964Z,6.68
2022-08-18T13:08:04.210Z,6.25
2022-08-18T13:18:09.282Z,6.25
2022-08-18T13:28:22.114Z,6.55
2022-08-18T13:38:27.820Z,6.85
2022-08-18T13:48:32.243Z,6.25
2022-08-18T13:58:34.389Z,6.47
2022-08-18T14:08:36.776Z,6.50
2022-08-18T14:19:05.380Z,6.30
2022-08-18T14:29:16.925Z,6.53
2022-08-18T14:39:30.072Z,6.70
2022-08-18T14:49:33.387Z,6.13
2022-08-18T14:59:42.269Z,6.60
2022-08-18T15:09:51.089Z,6.57
2022-08-18T15:20:18.598Z,6.65
2022-08-18T15:30:21.751Z,6.32
2022-08-18T15:40:30.825Z,7.07
2022-08-18T15:50:51.119Z,7.10
2022-08-18T16:00:55.459Z,7.00
2022-08-18T16:11:10.010Z,7.50
2022-08-18T16:21:26.421Z,7.50
2022-08-18T16:31:31.656Z,7.63
2022-08-18T16:41:40.205Z,7.30
2022-08-18T16:51:45.613Z,7.35
2022-08-18T17:02:11.647Z,7.82
2022-08-18T17:12:13.926Z,8.05
2022-08-18T17:22:19.191Z,7.90
2022-08-18T17:32:29.291Z,8.07
2022-08-18T17:42:35.894Z,7.80
2022-08-18T17:52:53.338Z,7.55
2022-08-18T18:03:00.495Z,7.63
2022-08-18T18:13:11.757Z,7.30
2022-08-18T18:23:20.298Z,8.00
2022-08-18T18:33:25.613Z,14.93
2022-08-18T18:43:45.684Z,8.40
2022-08-18T18:54:07.438Z,7.82
2022-08-18T19:04:16.524Z,8.25
2022-08-18T19:14:26.731Z,7.63
2022-08-18T19:24:30.196Z,8.93
2022-08-18T19:34:37.750Z,7.57
2022-08-18T19:45:23.049Z,7.38
2022-08-18T19:56:03.481Z,9.18
2022-08-18T20:06:40.171Z,9.02
2022-08-18T20:17:24.580Z,9.27
2022-08-18T20:27:35.999Z,8.13
2022-08-18T20:37:43.200Z,8.05
2022-08-18T20:48:25.021Z,9.07
2022-08-18T20:58:32.337Z,8.25
2022-08-18T21:08:36.552Z,8.90
2022-08-18T21:18:39.792Z,9.52
2022-08-18T21:28:48.453Z,9.43
2022-08-18T21:39:06.186Z,10.15
2022-08-18T21:49:23.682Z,9.45
2022-08-18T21:59:29.861Z,12.90
2022-08-18T22:09:54.964Z,9.25
2022-08-18T22:20:35.547Z,9.18
2022-08-18T22:30:37.765Z,8.95
2022-08-18T22:40:44.629Z,9.35
2022-08-18T22:50:51.750Z,8.45
2022-08-18T23:00:54.844Z,9.10
2022-08-18T23:11:14.201Z,9.63
2022-08-18T23:21:34.610Z,9.43
2022-08-18T23:31:52.241Z,8.80
2022-08-18T23:41:57.765Z,8.25
2022-08-18T23:52:00.806Z,8.90
